createdAt,value
2016-06-06T08:40:05.277Z,23.96
2016-06-06T08:40:21.058Z,24.01
2016-06-06T08:41:17.983Z,24
2016-06-06T08:42:20.939Z,24.03
2016-06-06T08:43:23.848Z,24.13
2016-06-06T08:44:21.303Z,24.1
2016-06-06T08:45:26.603Z,24.16
2016-06-06T08:46:17.543Z,24.19
2016-06-06T08:47:23.515Z,24.31
2016-06-06T08:48:20.768Z,24.43
2016-06-06T08:49:17.849Z,24.43
2016-06-06T08:50:17.429Z,24.34
2016-06-06T08:51:17.369Z,24.38
2016-06-06T08:52:17.716Z,24.34
2016-06-06T08:53:17.296Z,24.44
2016-06-06T08:54:17.237Z,24.41
2016-06-06T08:55:20.224Z,24.41
2016-06-06T08:56:17.148Z,24.53
2016-06-06T08:57:23.088Z,24.58
2016-06-06T08:58:17.059Z,24.59
2016-06-06T08:59:20.735Z,24.46
2016-06-06T09:00:17.284Z,24.5
2016-06-06T09:01:16.943Z,24.66
2016-06-06T09:02:16.931Z,24.59
2016-06-06T09:03:16.964Z,24.58
2016-06-06T09:04:16.842Z,24.53
2016-06-06T09:05:17.173Z,24.58
2016-06-06T09:06:16.784Z,24.65
2016-06-06T09:07:16.678Z,24.69
2016-06-06T09:08:16.680Z,24.68
2016-06-06T09:09:16.934Z,24.77
2016-06-06T09:10:19.561Z,24.75
2016-06-06T09:11:16.517Z,24.75
2016-06-06T09:12:16.473Z,24.75
2016-06-06T09:13:16.475Z,24.81
2016-06-06T09:14:16.416Z,24.81
2016-06-06T09:15:16.371Z,24.85
2016-06-06T09:16:16.202Z,24.85
2016-06-06T09:17:16.252Z,24.88
2016-06-06T09:18:16.067Z,24.86
2016-06-06T09:19:16.210Z,25.03
2016-06-06T09:20:16.557Z,24.97
2016-06-06T09:21:16.107Z,25.06
2016-06-06T09:22:16.234Z,25.19
2016-06-06T09:23:16.033Z,25.22
2016-06-06T09:24:15.990Z,25.21
2016-06-06T09:25:15.960Z,25.19
2016-06-06T09:26:16.120Z,25.29
2016-06-06T09:27:18.857Z,25.22
2016-06-06T09:28:18.797Z,25.21
2016-06-06T09:29:16.424Z,25.18
2016-06-06T09:30:16.021Z,25.07
2016-06-06T09:31:16.289Z,25.07
2016-06-06T09:32:16.167Z,25.07
2016-06-06T09:33:15.795Z,25.11
2016-06-06T09:34:15.579Z,25.21
2016-06-06T09:35:15.551Z,25.3
2016-06-06T09:36:15.459Z,25.25
2016-06-06T09:37:15.618Z,25.39
2016-06-06T09:38:15.370Z,25.41
2016-06-06T09:39:18.358Z,25.43
2016-06-06T09:40:15.298Z,25.44
2016-06-06T09:41:15.473Z,25.46
2016-06-06T09:42:15.288Z,25.43
2016-06-06T09:43:15.291Z,25.41
2016-06-06T09:44:15.230Z,25.43
2016-06-06T09:45:15.172Z,25.46
2016-06-06T09:46:15.392Z,25.55
2016-06-06T09:47:15.130Z,25.63
2016-06-06T09:48:15.163Z,25.58
2016-06-06T09:49:15.775Z,25.58
2016-06-06T09:50:14.902Z,25.54
2016-06-06T09:51:17.687Z,25.56
2016-06-06T09:52:14.799Z,25.68
2016-06-06T09:53:14.786Z,25.58
2016-06-06T09:54:14.930Z,25.54
2016-06-06T09:55:14.916Z,25.55
2016-06-06T09:56:14.841Z,25.51
2016-06-06T09:57:14.641Z,25.49
2016-06-06T09:58:14.581Z,25.44
2016-06-06T09:59:15.755Z,25.44
2016-06-06T10:00:14.477Z,25.41
2016-06-06T10:01:14.480Z,25.55
2016-06-06T10:02:14.373Z,25.55
2016-06-06T10:03:17.345Z,25.52
2016-06-06T10:04:14.300Z,25.66
2016-06-06T10:05:14.303Z,25.55
2016-06-06T10:06:14.087Z,25.59
2016-06-06T10:07:14.387Z,25.61
2016-06-06T10:08:14.139Z,25.61
2016-06-06T10:09:13.939Z,25.62
2016-06-06T10:10:14.050Z,25.56
2016-06-06T10:11:14.007Z,25.66
2016-06-06T10:12:14.165Z,25.76
2016-06-06T10:13:13.917Z,25.81
2016-06-06T10:14:14.593Z,25.77
2016-06-06T10:15:14.252Z,25.92
2016-06-06T10:16:13.676Z,25.8
2016-06-06T10:17:13.835Z,25.8
2016-06-06T10:18:13.713Z,25.83
2016-06-06T10:19:13.684Z,25.93
2016-06-06T10:20:16.859Z,25.88
2016-06-06T10:21:13.596Z,25.88
2016-06-06T10:22:16.771Z,25.95
2016-06-06T10:23:13.586Z,25.89
2016-06-06T10:24:13.494Z,25.86
2016-06-06T10:25:13.450Z,25.95
2016-06-06T10:26:13.203Z,25.96
2016-06-06T10:27:13.346Z,25.99
2016-06-06T10:28:13.301Z,26.06
2016-06-06T10:29:13.774Z,26.06
2016-06-06T10:30:16.370Z,26.04
2016-06-06T10:31:13.388Z,26.04
2016-06-06T10:32:13.125Z,25.98
2016-06-06T10:33:13.159Z,25.95
2016-06-06T10:34:13.053Z,25.96
2016-06-06T10:35:13.399Z,25.99
2016-06-06T10:36:13.245Z,26.06
2016-06-06T10:37:12.936Z,26.03
2016-06-06T10:38:16.453Z,26.08
2016-06-06T10:39:12.848Z,26.24
2016-06-06T10:40:12.834Z,26.22
2016-06-06T10:41:12.759Z,26.18
2016-06-06T10:42:12.792Z,26.31
2016-06-06T10:43:12.530Z,26.46
2016-06-06T10:44:12.673Z,26.52
2016-06-06T10:45:12.629Z,26.44
2016-06-06T10:46:12.553Z,26.31
2016-06-06T10:47:12.541Z,26.34
2016-06-06T10:48:15.622Z,26.19
2016-06-06T10:49:18.483Z,26.23
2016-06-06T10:50:12.439Z,26.23
2016-06-06T10:51:12.349Z,26.23
2016-06-06T10:52:12.320Z,26.16
2016-06-06T10:53:12.307Z,26.18
2016-06-06T10:54:18.638Z,26.23
2016-06-06T10:55:12.172Z,26.24
2016-06-06T10:56:12.127Z,26.31
2016-06-06T10:57:12.115Z,26.37
2016-06-06T10:58:11.898Z,26.45
2016-06-06T10:59:19.073Z,26.53
2016-06-06T11:00:15.591Z,26.48
2016-06-06T11:01:12.016Z,26.7
2016-06-06T11:02:11.909Z,26.74
2016-06-06T11:03:11.912Z,26.74
2016-06-06T11:04:11.837Z,26.71
2016-06-06T11:05:11.855Z,26.78
2016-06-06T11:06:11.749Z,26.85
2016-06-06T11:07:14.892Z,26.86
2016-06-06T11:08:11.831Z,26.93
2016-06-06T11:09:14.631Z,26.98
2016-06-06T11:10:14.775Z,26.96
2016-06-06T11:11:11.699Z,27
2016-06-06T11:12:11.717Z,27.03
2016-06-06T11:13:14.517Z,27.05
2016-06-06T11:14:15.989Z,26.98
2016-06-06T11:15:14.303Z,27.01
2016-06-06T11:16:11.306Z,26.88
2016-06-06T11:17:11.293Z,26.86
2016-06-06T11:18:11.234Z,26.96
2016-06-06T11:19:11.111Z,26.93
2016-06-06T11:20:11.145Z,26.97
2016-06-06T11:21:14.148Z,26.93
2016-06-06T11:22:11.072Z,26.93
2016-06-06T11:23:11.013Z,26.98
2016-06-06T11:24:11.000Z,26.97
2016-06-06T11:25:10.799Z,27.01
2016-06-06T11:26:10.911Z,27.05
2016-06-06T11:27:10.883Z,27.01
2016-06-06T11:28:10.664Z,26.93
2016-06-06T11:29:11.732Z,27
2016-06-06T11:30:12.532Z,27.03
2016-06-06T11:31:10.704Z,27.11
2016-06-06T11:32:13.724Z,27.25
2016-06-06T11:33:10.646Z,27.34
2016-06-06T11:34:10.790Z,27.5
2016-06-06T11:35:10.542Z,27.48
2016-06-06T11:36:10.592Z,27.68
2016-06-06T11:37:10.454Z,27.81
2016-06-06T11:38:10.613Z,27.81
2016-06-06T11:39:10.615Z,27.79
2016-06-06T11:40:10.853Z,27.91
2016-06-06T11:41:13.498Z,27.97
2016-06-06T11:42:10.342Z,28.04
2016-06-06T11:43:13.442Z,28.09
2016-06-06T11:44:11.004Z,28.1
2016-06-06T11:45:10.006Z,28.01
2016-06-06T11:46:10.087Z,28.03
2016-06-06T11:47:10.262Z,27.97
2016-06-06T11:48:10.014Z,28.03
2016-06-06T11:49:09.970Z,28.04
2016-06-06T11:50:09.926Z,28.06
2016-06-06T11:51:09.914Z,28.15
2016-06-06T11:52:09.838Z,28.06
2016-06-06T11:53:09.888Z,28.06
2016-06-06T11:54:09.766Z,27.98
2016-06-06T11:55:09.924Z,27.81
2016-06-06T11:56:09.692Z,27.76
2016-06-06T11:57:12.651Z,27.83
2016-06-06T11:58:10.213Z,27.88
2016-06-06T11:59:10.232Z,28.01
2016-06-06T12:00:10.140Z,28.01
2016-06-06T12:01:09.535Z,28.16
2016-06-06T12:02:09.443Z,28.16
2016-06-06T12:03:09.570Z,28.23
2016-06-06T12:04:09.199Z,28.18
2016-06-06T12:05:09.311Z,28.16
2016-06-06T12:06:09.266Z,27.98
2016-06-06T12:07:09.331Z,28.01
2016-06-06T12:08:09.210Z,28.04
2016-06-06T12:09:09.618Z,28.03
2016-06-06T12:10:09.136Z,27.93
2016-06-06T12:11:08.937Z,27.81
2016-06-06T12:12:09.048Z,27.72
2016-06-06T12:13:12.207Z,27.81
2016-06-06T12:14:09.116Z,27.68
2016-06-06T12:15:08.790Z,27.53
2016-06-06T12:16:09.184Z,27.45
2016-06-06T12:17:09.109Z,27.52
2016-06-06T12:18:08.798Z,27.48
2016-06-06T12:19:08.770Z,27.45
2016-06-06T12:20:08.726Z,27.47
2016-06-06T12:21:08.697Z,27.58
2016-06-06T12:22:08.669Z,27.63
2016-06-06T12:23:08.594Z,27.6
2016-06-06T12:24:08.767Z,27.57
2016-06-06T12:25:08.770Z,27.71
2016-06-06T12:26:08.632Z,27.81
2016-06-06T12:27:11.682Z,27.83
2016-06-06T12:28:08.403Z,28.01
2016-06-06T12:29:08.202Z,28.06
2016-06-06T12:30:09.080Z,28.31
2016-06-06T12:31:08.302Z,28.34
2016-06-06T12:32:11.258Z,28.4
2016-06-06T12:33:08.246Z,28.46
2016-06-06T12:34:08.357Z,28.5
2016-06-06T12:35:11.125Z,28.55
2016-06-06T12:36:08.097Z,28.52
2016-06-06T12:37:08.052Z,28.45
2016-06-06T12:38:08.009Z,28.31
2016-06-06T12:39:08.073Z,28.3
2016-06-06T12:40:08.123Z,28.2
2016-06-06T12:41:07.845Z,28.25
2016-06-06T12:42:08.363Z,28.27
2016-06-06T12:43:10.803Z,28.23
2016-06-06T12:44:11.354Z,28.28
2016-06-06T12:45:07.684Z,28.46
2016-06-06T12:46:07.748Z,28.65
2016-06-06T12:47:08.345Z,28.68
2016-06-06T12:48:07.629Z,28.74
2016-06-06T12:49:07.820Z,28.62
2016-06-06T12:50:10.541Z,28.55
2016-06-06T12:51:07.731Z,28.6
2016-06-06T12:52:07.453Z,28.56
2016-06-06T12:53:07.408Z,28.55
2016-06-06T12:54:07.364Z,28.56
2016-06-06T12:55:10.367Z,28.57
2016-06-06T12:56:07.292Z,28.55
2016-06-06T12:57:07.169Z,28.45
2016-06-06T12:58:07.202Z,28.37
2016-06-06T12:59:07.799Z,28.34
2016-06-06T13:00:07.130Z,28.31
2016-06-06T13:01:07.102Z,28.2
2016-06-06T13:02:07.058Z,28.2
2016-06-06T13:03:06.997Z,28.2
2016-06-06T13:04:07.391Z,28.22
2016-06-06T13:05:06.940Z,28.22
2016-06-06T13:06:10.803Z,28.33
2016-06-06T13:07:09.868Z,28.31
2016-06-06T13:08:07.042Z,28.43
2016-06-06T13:09:07.139Z,28.41
2016-06-06T13:10:06.735Z,28.4
2016-06-06T13:11:09.566Z,28.33
2016-06-06T13:12:06.662Z,28.31
2016-06-06T13:13:09.837Z,28.25
2016-06-06T13:14:07.684Z,28.3
2016-06-06T13:15:07.577Z,28.2
2016-06-06T13:16:09.923Z,28.27
2016-06-06T13:17:06.457Z,28.23
2016-06-06T13:18:06.459Z,28.03
2016-06-06T13:19:06.384Z,28.06
2016-06-06T13:20:15.356Z,27.98
2016-06-06T13:21:06.453Z,28
2016-06-06T13:22:15.298Z,28.03
2016-06-06T13:23:06.208Z,28.1
2016-06-06T13:24:06.383Z,28.09
2016-06-06T13:25:06.119Z,28
2016-06-06T13:26:06.106Z,27.88
2016-06-06T13:27:06.656Z,27.82
2016-06-06T13:28:06.049Z,27.76
2016-06-06T13:29:09.677Z,27.66
2016-06-06T13:30:08.961Z,27.53
2016-06-06T13:31:06.119Z,27.38
2016-06-06T13:32:08.904Z,27.3
2016-06-06T13:33:05.860Z,27.11
2016-06-06T13:34:05.830Z,27.16
2016-06-06T13:35:05.974Z,27.13
2016-06-06T13:36:08.680Z,27.03
2016-06-06T13:37:05.793Z,26.97
2016-06-06T13:38:05.935Z,26.92
2016-06-06T13:39:05.751Z,26.85
2016-06-06T13:40:07.347Z,26.79
2016-06-06T13:41:05.724Z,26.79
2016-06-06T13:42:08.618Z,26.76
2016-06-06T13:43:08.745Z,26.71
2016-06-06T13:44:08.780Z,26.67
2016-06-06T13:45:05.471Z,26.68
2016-06-06T13:46:05.535Z,26.64
2016-06-06T13:47:05.240Z,26.59
2016-06-06T13:48:05.260Z,26.49
2016-06-06T13:49:05.231Z,26.45
2016-06-06T13:50:05.170Z,26.42
2016-06-06T13:51:05.533Z,26.33
2016-06-06T13:52:05.083Z,26.3
2016-06-06T13:53:05.211Z,26.31
2016-06-06T13:54:04.838Z,26.36
2016-06-06T13:55:04.997Z,26.34
2016-06-06T13:56:07.953Z,26.34
2016-06-06T13:57:04.908Z,26.19
2016-06-06T13:58:04.927Z,26.23
2016-06-06T13:59:05.351Z,26.27
2016-06-06T14:00:05.088Z,26.19
2016-06-06T14:01:04.700Z,26.19
2016-06-06T14:02:04.719Z,26.18
2016-06-06T14:03:04.628Z,26.19
2016-06-06T14:04:04.646Z,26.24
2016-06-06T14:05:04.555Z,26.23
2016-06-06T14:06:04.824Z,26.26
2016-06-06T14:07:04.499Z,26.24
2016-06-06T14:08:04.391Z,26.23
2016-06-06T14:09:04.566Z,26.19
2016-06-06T14:10:07.334Z,26.16
2016-06-06T14:11:04.337Z,26.24
2016-06-06T14:12:04.246Z,26.34
2016-06-06T14:13:04.218Z,26.33
2016-06-06T14:14:04.579Z,26.26
2016-06-06T14:15:04.723Z,26.29
2016-06-06T14:16:04.288Z,26.26
2016-06-06T14:17:07.041Z,26.31
2016-06-06T14:18:07.028Z,26.31
2016-06-06T14:19:04.155Z,26.31
2016-06-06T14:20:06.939Z,26.41
2016-06-06T14:21:04.067Z,26.45
2016-06-06T14:22:06.850Z,26.46
2016-06-06T14:23:03.791Z,26.37
2016-06-06T14:24:03.762Z,26.34
2016-06-06T14:25:03.828Z,26.39
2016-06-06T14:26:03.706Z,26.42
2016-06-06T14:27:03.645Z,26.44
2016-06-06T14:28:03.600Z,26.45
2016-06-06T14:29:03.573Z,26.44
2016-06-06T14:30:03.731Z,26.48
2016-06-06T14:31:03.655Z,26.55
2016-06-06T14:32:03.769Z,26.49
2016-06-06T14:33:03.380Z,26.49
2016-06-06T14:34:03.336Z,26.53
2016-06-06T14:35:03.526Z,26.53
2016-06-06T14:36:03.466Z,26.45
2016-06-06T14:37:03.422Z,26.44
2016-06-06T14:38:03.753Z,26.48
2016-06-06T14:39:03.365Z,26.51
2016-06-06T14:40:03.338Z,26.55
2016-06-06T14:41:06.090Z,26.59
2016-06-06T14:42:03.107Z,26.59
2016-06-06T14:43:03.001Z,26.56
2016-06-06T14:44:02.941Z,26.74
2016-06-06T14:45:03.772Z,26.88
2016-06-06T14:46:02.868Z,27.04
2016-06-06T14:47:02.887Z,27.11
2016-06-06T14:48:02.779Z,27.25
2016-06-06T14:49:02.752Z,27.55
2016-06-06T14:50:03.207Z,27.85
2016-06-06T14:51:05.662Z,28.03
2016-06-06T14:52:02.915Z,28.2
2016-06-06T14:53:05.575Z,28.56
2016-06-06T14:54:13.217Z,28.82
2016-06-06T14:55:02.814Z,29.05
2016-06-06T14:56:02.458Z,29.22
2016-06-06T14:57:02.414Z,29.5
2016-06-06T14:58:02.681Z,29.62
2016-06-06T14:59:02.373Z,29.62
2016-06-06T15:00:02.297Z,29.77
2016-06-06T15:01:02.284Z,29.89
2016-06-06T15:02:02.442Z,30.06
2016-06-06T15:03:02.211Z,30.16
2016-06-06T15:04:02.152Z,30.33
2016-06-06T15:05:05.732Z,30.46
2016-06-06T15:06:02.063Z,30.52
2016-06-06T15:07:02.113Z,30.54
2016-06-06T15:08:01.990Z,30.59
2016-06-06T15:09:01.962Z,30.71
2016-06-06T15:10:01.746Z,30.7
2016-06-06T15:11:04.888Z,30.81
2016-06-06T15:12:01.829Z,30.77
2016-06-06T15:13:04.832Z,30.93
2016-06-06T15:14:01.896Z,31.08
2016-06-06T15:15:01.540Z,31.25
2016-06-06T15:16:04.730Z,31.36
2016-06-06T15:17:04.811Z,31.5
2016-06-06T15:18:04.423Z,31.47
2016-06-06T15:19:01.551Z,31.67
2016-06-06T15:20:04.523Z,31.63
2016-06-06T15:21:01.557Z,31.51
2016-06-06T15:22:01.434Z,31.5
2016-06-06T15:23:01.406Z,31.45
2016-06-06T15:24:04.502Z,31.44
2016-06-06T15:25:01.380Z,31.44
2016-06-06T15:26:01.304Z,31.41
2016-06-06T15:27:02.259Z,31.23
2016-06-06T15:28:01.247Z,31.25
2016-06-06T15:29:01.203Z,31.36
2016-06-06T15:30:05.003Z,31.39
2016-06-06T15:31:04.303Z,31.5
2016-06-06T15:32:01.102Z,31.59
2016-06-06T15:33:01.058Z,31.6
2016-06-06T15:34:00.982Z,31.69
2016-06-06T15:35:00.970Z,31.73
2016-06-06T15:36:01.144Z,31.69
2016-06-06T15:37:01.428Z,31.77
2016-06-06T15:38:00.852Z,31.87
2016-06-06T15:39:03.855Z,31.77
2016-06-06T15:40:00.795Z,31.77
2016-06-06T15:41:00.797Z,31.73
2016-06-06T15:42:00.722Z,31.78
2016-06-06T15:43:00.677Z,31.77
2016-06-06T15:44:03.743Z,31.7
2016-06-06T15:45:04.137Z,31.54
2016-06-06T15:46:00.561Z,31.5
2016-06-06T15:47:00.549Z,31.41
2016-06-06T15:48:00.504Z,31.26
2016-06-06T15:49:00.444Z,31.29
2016-06-06T15:50:00.447Z,31.2
2016-06-06T15:51:00.388Z,31.14
2016-06-06T15:52:01.156Z,31.18
2016-06-06T15:53:06.487Z,31.08
2016-06-06T15:54:03.317Z,30.88
2016-06-06T15:55:00.289Z,30.83
2016-06-06T15:56:01.057Z,30.78
2016-06-06T15:57:00.215Z,30.7
2016-06-06T15:58:00.406Z,30.61
2016-06-06T15:58:59.956Z,30.52
2016-06-06T16:00:06.303Z,30.29
2016-06-06T16:01:00.086Z,30.14
2016-06-06T16:01:59.995Z,30.03
2016-06-06T16:03:02.811Z,29.76
2016-06-06T16:03:59.797Z,29.55
2016-06-06T16:04:59.894Z,29.32
2016-06-06T16:06:00.428Z,29.18
2016-06-06T16:06:59.821Z,29.02
2016-06-06T16:08:02.620Z,28.92
2016-06-06T16:08:59.936Z,28.75
2016-06-06T16:10:03.236Z,28.53
2016-06-06T16:10:59.550Z,28.45
2016-06-06T16:12:01.444Z,28.31
2016-06-06T16:12:59.572Z,28.18
2016-06-06T16:14:02.544Z,28.06
2016-06-06T16:14:59.702Z,28.15
2016-06-06T16:15:59.455Z,28.04
2016-06-06T16:16:59.426Z,28
2016-06-06T16:17:59.382Z,27.94
2016-06-06T16:18:59.557Z,27.97
2016-06-06T16:20:02.325Z,27.91
2016-06-06T16:20:59.296Z,27.86
2016-06-06T16:21:59.252Z,27.91
2016-06-06T16:22:59.255Z,27.83
2016-06-06T16:23:59.163Z,27.82
2016-06-06T16:25:02.120Z,27.79
2016-06-06T16:25:59.091Z,27.82
2016-06-06T16:26:59.062Z,27.78
2016-06-06T16:27:59.003Z,27.66
2016-06-06T16:28:59.412Z,27.64
2016-06-06T16:29:59.726Z,27.58
2016-06-06T16:30:59.620Z,27.52
2016-06-06T16:31:58.873Z,27.48
2016-06-06T16:33:08.422Z,27.5
2016-06-06T16:33:58.815Z,27.45
2016-06-06T16:34:58.725Z,27.35
2016-06-06T16:35:58.712Z,27.41
2016-06-06T16:36:58.652Z,27.29
2016-06-06T16:37:58.639Z,27.38
2016-06-06T16:38:58.564Z,27.29
2016-06-06T16:39:58.722Z,27.25
2016-06-06T16:40:58.538Z,27.29
2016-06-06T16:41:58.447Z,27.3
2016-06-06T16:43:01.407Z,27.28
2016-06-06T16:43:58.384Z,27.25
2016-06-06T16:45:04.797Z,27.11
2016-06-06T16:46:01.321Z,27.13
2016-06-06T16:46:58.282Z,27.03
2016-06-06T16:47:58.240Z,27.15
2016-06-06T16:48:58.400Z,27.2
2016-06-06T16:49:58.356Z,27.25
2016-06-06T16:50:58.111Z,27.3
2016-06-06T16:51:58.131Z,27.26
2016-06-06T16:52:58.041Z,27.34
2016-06-06T16:53:57.997Z,27.35
2016-06-06T16:54:57.954Z,27.29
2016-06-06T16:55:58.020Z,27.33
2016-06-06T16:56:57.946Z,27.26
2016-06-06T16:57:57.839Z,27.28
2016-06-06T16:58:57.810Z,27.26
2016-06-06T16:59:58.455Z,27.28
2016-06-06T17:00:58.020Z,27.29
2016-06-06T17:01:57.679Z,27.16
2016-06-06T17:02:57.667Z,27.13
2016-06-06T17:03:57.513Z,27.15
2016-06-06T17:04:57.562Z,27.05
2016-06-06T17:05:57.768Z,26.98
2016-06-06T17:06:57.506Z,27.03
2016-06-06T17:07:57.430Z,27.04
2016-06-06T17:09:00.417Z,27
2016-06-06T17:09:57.373Z,26.97
2016-06-06T17:11:00.328Z,26.98
2016-06-06T17:11:57.285Z,26.97
2016-06-06T17:12:57.272Z,27.01
2016-06-06T17:13:57.196Z,27
2016-06-06T17:14:57.308Z,26.96
2016-06-06T17:15:57.155Z,26.88
2016-06-06T17:16:57.110Z,26.91
2016-06-06T17:17:57.051Z,26.89
2016-06-06T17:18:57.022Z,26.85
2016-06-06T17:19:57.181Z,26.83
2016-06-06T17:20:57.121Z,26.93
2016-06-06T17:21:56.718Z,26.86
2016-06-06T17:22:56.846Z,26.83
2016-06-06T17:23:57.051Z,26.88
2016-06-06T17:24:56.773Z,26.83
2016-06-06T17:25:56.743Z,26.81
2016-06-06T17:26:56.684Z,26.79
2016-06-06T17:27:56.640Z,26.81
2016-06-06T17:28:56.814Z,26.83
2016-06-06T17:29:57.412Z,26.79
2016-06-06T17:30:56.289Z,26.81
2016-06-06T17:31:56.478Z,26.74
2016-06-06T17:32:56.451Z,26.74
2016-06-06T17:33:56.390Z,26.78
2016-06-06T17:34:56.361Z,26.7
2016-06-06T17:35:56.317Z,26.71
2016-06-06T17:36:56.336Z,26.66
2016-06-06T17:37:56.229Z,26.59
2016-06-06T17:38:59.404Z,26.59
2016-06-06T17:39:56.172Z,26.59
2016-06-06T17:40:56.127Z,26.52
2016-06-06T17:41:56.084Z,26.49
2016-06-06T17:42:56.243Z,26.48
2016-06-06T17:43:55.996Z,26.49
2016-06-06T17:44:56.294Z,26.51
2016-06-06T17:45:55.783Z,26.45
2016-06-06T17:46:55.879Z,26.51
2016-06-06T17:47:55.865Z,26.39
2016-06-06T17:48:55.635Z,26.45
2016-06-06T17:49:58.746Z,26.45
2016-06-06T17:50:55.717Z,26.36
2016-06-06T17:51:55.673Z,26.31
2016-06-06T17:52:55.629Z,26.3
2016-06-06T17:53:55.601Z,26.34
2016-06-06T17:54:55.540Z,26.3
2016-06-06T17:55:55.496Z,26.31
2016-06-06T17:56:55.484Z,26.29
2016-06-06T17:57:55.626Z,26.19
2016-06-06T17:58:58.426Z,26.19
2016-06-06T17:59:55.742Z,26.16
2016-06-06T18:00:55.573Z,26.26
2016-06-06T18:01:55.325Z,26.19
2016-06-06T18:02:55.218Z,26.23
2016-06-06T18:03:55.065Z,26.19
2016-06-06T18:04:55.145Z,26.19
2016-06-06T18:05:58.320Z,26.08
2016-06-06T18:06:55.073Z,26.13
2016-06-06T18:07:55.028Z,26.04
2016-06-06T18:08:54.984Z,26.13
2016-06-06T18:09:57.987Z,26.13
2016-06-06T18:11:00.911Z,26.13
2016-06-06T18:11:54.883Z,26.04
2016-06-06T18:12:54.824Z,26.03
2016-06-06T18:13:54.842Z,25.96
2016-06-06T18:14:55.375Z,26.07
2016-06-06T18:15:54.550Z,25.98
2016-06-06T18:16:54.647Z,26.06
2016-06-06T18:17:54.602Z,25.98
2016-06-06T18:18:54.543Z,25.91
2016-06-06T18:19:54.530Z,25.89
2016-06-06T18:20:57.502Z,25.92
2016-06-06T18:21:54.285Z,25.86
2016-06-06T18:22:54.288Z,25.83
2016-06-06T18:23:54.368Z,25.77
2016-06-06T18:24:54.388Z,25.74
2016-06-06T18:25:54.295Z,25.77
2016-06-06T18:26:54.251Z,25.74
2016-06-06T18:27:57.114Z,25.74
2016-06-06T18:29:00.163Z,25.76
2016-06-06T18:29:57.587Z,25.71
2016-06-06T18:30:54.107Z,25.76
2016-06-06T18:31:57.234Z,25.67
2016-06-06T18:32:53.986Z,25.73
2016-06-06T18:33:53.973Z,25.66
2016-06-06T18:34:54.133Z,25.66
2016-06-06T18:35:53.901Z,25.61
2016-06-06T18:36:53.841Z,25.58
2016-06-06T18:37:53.797Z,25.58
2016-06-06T18:38:53.769Z,25.59
2016-06-06T18:39:56.927Z,25.66
2016-06-06T18:40:53.664Z,25.66
2016-06-06T18:41:59.636Z,25.54
2016-06-06T18:42:56.779Z,25.56
2016-06-06T18:43:56.548Z,25.62
2016-06-06T18:44:57.222Z,25.52
2016-06-06T18:45:54.397Z,25.48
2016-06-06T18:46:53.477Z,25.52
2016-06-06T18:47:53.386Z,25.55
2016-06-06T18:48:53.342Z,25.51
2016-06-06T18:49:53.298Z,25.58
2016-06-06T18:50:53.254Z,25.55
2016-06-06T18:51:53.210Z,25.49
2016-06-06T18:52:53.182Z,25.41
2016-06-06T18:53:53.137Z,25.48
2016-06-06T18:54:53.092Z,25.55
2016-06-06T18:55:53.346Z,25.43
2016-06-06T18:56:53.020Z,25.49
2016-06-06T18:57:53.070Z,25.46
2016-06-06T18:58:52.791Z,25.41
2016-06-06T18:59:53.403Z,25.51
2016-06-06T19:00:53.436Z,25.41
2016-06-06T19:01:52.814Z,25.41
2016-06-06T19:02:52.801Z,25.41
2016-06-06T19:03:52.961Z,25.36
2016-06-06T19:04:52.713Z,25.39
2016-06-06T19:05:52.669Z,25.31
2016-06-06T19:06:55.625Z,25.26
2016-06-06T19:07:52.581Z,25.3
2016-06-06T19:08:52.583Z,25.33
2016-06-06T19:09:52.695Z,25.29
2016-06-06T19:10:52.526Z,25.22
2016-06-06T19:11:52.811Z,25.29
2016-06-06T19:12:55.656Z,25.34
2016-06-06T19:13:58.331Z,25.26
2016-06-06T19:14:52.302Z,25.24
2016-06-06T19:15:55.431Z,25.31
2016-06-06T19:16:52.402Z,25.24
2016-06-06T19:17:55.655Z,25.16
2016-06-06T19:18:52.376Z,25.24
2016-06-06T19:19:52.269Z,25.15
2016-06-06T19:20:52.022Z,25.18
2016-06-06T19:21:54.994Z,25.04
2016-06-06T19:22:58.027Z,25.06
2016-06-06T19:23:51.921Z,25.12
2016-06-06T19:25:00.938Z,25.03
2016-06-06T19:25:54.832Z,25.03
2016-06-06T19:26:51.804Z,25.07
2016-06-06T19:27:51.775Z,25.03
2016-06-06T19:28:57.746Z,24.97
2016-06-06T19:29:51.687Z,25.01
2016-06-06T19:30:54.612Z,24.89
2016-06-06T19:31:51.598Z,24.96
2016-06-06T19:32:51.523Z,24.86
2016-06-06T19:33:54.526Z,24.93
2016-06-06T19:34:51.465Z,24.89
2016-06-06T19:35:54.672Z,24.86
2016-06-06T19:36:51.565Z,24.84
2016-06-06T19:37:54.334Z,24.74
2016-06-06T19:38:51.367Z,24.78
2016-06-06T19:39:51.354Z,24.79
2016-06-06T19:40:51.420Z,24.62
2016-06-06T19:41:51.203Z,24.66
2016-06-06T19:42:51.519Z,24.75
2016-06-06T19:43:51.147Z,24.61
2016-06-06T19:44:51.008Z,24.56
2016-06-06T19:45:50.995Z,24.58
2016-06-06T19:46:50.952Z,24.58
2016-06-06T19:47:50.891Z,24.63
2016-06-06T19:48:50.863Z,24.62
2016-06-06T19:49:51.334Z,24.61
2016-06-06T19:50:50.774Z,24.58
2016-06-06T19:51:50.590Z,24.59
2016-06-06T19:52:50.702Z,24.56
2016-06-06T19:53:53.485Z,24.47
2016-06-06T19:54:53.629Z,24.51
2016-06-06T19:55:50.976Z,24.43
2016-06-06T19:56:50.932Z,24.55
2016-06-06T19:57:56.527Z,24.47
2016-06-06T19:58:50.780Z,24.44
2016-06-06T19:59:53.548Z,24.46
2016-06-06T20:00:50.410Z,24.43
2016-06-06T20:01:53.632Z,24.37
2016-06-06T20:02:56.462Z,24.34
2016-06-06T20:03:50.403Z,24.38
2016-06-06T20:04:50.251Z,24.4
2016-06-06T20:05:51.033Z,24.34
2016-06-06T20:06:53.209Z,24.31
2016-06-06T20:07:50.492Z,24.34
2016-06-06T20:08:50.057Z,24.28
2016-06-06T20:09:50.091Z,24.29
2016-06-06T20:10:53.297Z,24.24
2016-06-06T20:11:50.019Z,24.24
2016-06-06T20:12:50.130Z,24.31
2016-06-06T20:13:49.742Z,24.21
2016-06-06T20:14:49.636Z,24.21
2016-06-06T20:15:49.841Z,24.19
2016-06-06T20:16:50.000Z,24.19
2016-06-06T20:17:49.660Z,24.19
2016-06-06T20:18:49.834Z,24.19
2016-06-06T20:19:59.180Z,24.21
2016-06-06T20:20:49.778Z,24.24
2016-06-06T20:21:49.530Z,24.18
2016-06-06T20:22:52.485Z,24.16
2016-06-06T20:23:49.535Z,24.18
2016-06-06T20:24:49.444Z,24.16
2016-06-06T20:25:49.462Z,24.1
2016-06-06T20:26:49.480Z,24.1
2016-06-06T20:27:52.358Z,23.99
2016-06-06T20:28:49.205Z,24.03
2016-06-06T20:29:52.504Z,24.06
2016-06-06T20:30:49.179Z,24.07
2016-06-06T20:31:49.104Z,24.04
2016-06-06T20:32:52.060Z,24
2016-06-06T20:33:49.000Z,24
2016-06-06T20:34:55.659Z,23.95
2016-06-06T20:35:54.926Z,23.96
2016-06-06T20:36:53.320Z,24
2016-06-06T20:37:49.120Z,23.96
2016-06-06T20:38:51.887Z,23.91
2016-06-06T20:39:48.890Z,23.92
2016-06-06T20:40:52.018Z,23.85
2016-06-06T20:41:51.646Z,23.77
2016-06-06T20:42:48.805Z,23.82
2016-06-06T20:43:48.651Z,23.81
2016-06-06T20:44:51.591Z,23.74
2016-06-06T20:45:48.485Z,23.82
2016-06-06T20:46:51.519Z,23.81
2016-06-06T20:47:48.491Z,23.76
2016-06-06T20:48:51.414Z,23.77
2016-06-06T20:49:48.621Z,23.74
2016-06-06T20:50:51.904Z,23.74
2016-06-06T20:51:48.688Z,23.67
2016-06-06T20:52:48.379Z,23.73
2016-06-06T20:53:48.382Z,23.69
2016-06-06T20:54:48.462Z,23.66
2016-06-06T20:56:00.199Z,23.64
2016-06-06T20:56:48.140Z,23.7
2016-06-06T20:58:03.064Z,23.67
2016-06-06T20:58:50.926Z,23.62
2016-06-06T20:59:48.069Z,23.66
2016-06-06T21:00:48.041Z,23.62
2016-06-06T21:01:47.810Z,23.63
2016-06-06T21:02:50.782Z,23.66
2016-06-06T21:03:47.736Z,23.64
2016-06-06T21:04:47.692Z,23.62
2016-06-06T21:05:53.883Z,23.58
2016-06-06T21:06:50.448Z,23.55
2016-06-06T21:07:50.997Z,23.54
2016-06-06T21:08:47.531Z,23.51
2016-06-06T21:09:50.550Z,23.54
2016-06-06T21:10:47.553Z,23.48
2016-06-06T21:11:47.570Z,23.49
2016-06-06T21:12:50.354Z,23.51
2016-06-06T21:13:47.279Z,23.51
2016-06-06T21:14:47.251Z,23.51
2016-06-06T21:15:47.409Z,23.48
2016-06-06T21:16:47.162Z,23.48
2016-06-06T21:17:47.133Z,23.47
2016-06-06T21:18:50.090Z,23.45
2016-06-06T21:19:54.560Z,23.36
2016-06-06T21:20:47.532Z,23.39
2016-06-06T21:21:49.957Z,23.47
2016-06-06T21:22:46.928Z,23.37
2016-06-06T21:23:46.868Z,23.39
2016-06-06T21:24:49.824Z,23.33
2016-06-06T21:25:46.796Z,23.34
2016-06-06T21:26:46.783Z,23.39
2016-06-06T21:27:46.707Z,23.37
2016-06-06T21:28:46.663Z,23.4
2016-06-06T21:29:46.838Z,23.32
2016-06-06T21:30:46.637Z,23.36
2016-06-06T21:31:46.530Z,23.33
2016-06-06T21:32:49.751Z,23.37
2016-06-06T21:33:52.473Z,23.36